createdAt,value
2022-12-11T00:00:02.415Z,75.46750966595404
2022-12-11T00:15:02.029Z,75.55316362338583
2022-12-11T00:30:01.739Z,75.6750828270391
2022-12-11T00:45:02.386Z,75.86481920990906
2022-12-11T01:00:02.029Z,75.82642083890792
2022-12-11T01:15:01.684Z,75.96982673053392
2022-12-11T01:30:02.356Z,75.87500150326997
2022-12-11T01:45:01.966Z,75.26258060926266
2022-12-11T02:00:01.624Z,75.85721706948793
2022-12-11T02:15:02.221Z,75.69318953297999
2022-12-11T02:30:01.978Z,75.73645492462992
2022-12-11T02:45:01.623Z,75.65023129076197
2022-12-11T03:00:02.263Z,75.7758343216607
2022-12-11T03:15:01.879Z,75.8505673110371
2022-12-11T03:30:02.560Z,75.71181876533709
2022-12-11T03:45:02.184Z,75.78584490958328
2022-12-11T04:00:01.844Z,75.45571699618058
2022-12-11T04:15:02.499Z,75.40632438107727
2022-12-11T04:30:02.167Z,75.88026195323607
2022-12-11T04:45:01.825Z,75.72744803168835
2022-12-11T05:00:02.456Z,75.81324718763663
2022-12-11T05:15:02.091Z,75.9107982706388
2022-12-11T05:30:02.345Z,76.08391975362025
2022-12-11T05:45:02.027Z,75.92304601800151
2022-12-11T06:00:01.667Z,76.52192138961195
2022-12-11T06:15:02.318Z,76.45486648965769
2022-12-11T06:30:01.985Z,76.22921699069028
2022-12-11T06:45:01.596Z,76.08044043751566
2022-12-11T07:00:02.230Z,75.97994928821622
2022-12-11T07:15:01.886Z,75.89747687214914
2022-12-11T07:30:01.606Z,75.8096849839181
2022-12-11T07:45:02.236Z,75.79305059960437
2022-12-11T08:00:01.873Z,75.80252808481136
2022-12-11T08:15:02.504Z,75.83671729142078
2022-12-11T08:30:02.215Z,75.82449353242995
2022-12-11T08:45:01.865Z,75.74314695013504
2022-12-11T09:00:02.520Z,75.7697590103706
2022-12-11T09:15:02.198Z,75.65746623374838
2022-12-11T09:30:01.857Z,75.69809851216621
2022-12-11T09:45:02.498Z,75.72234605608419
2022-12-11T10:00:05.156Z,75.68764380865305
2022-12-11T10:15:02.436Z,75.70542909182352
2022-12-11T10:30:02.102Z,75.75996810464117
2022-12-11T10:45:01.739Z,75.69152735366485
2022-12-11T11:00:02.384Z,75.7839912140083
2022-12-11T11:15:01.981Z,75.7860437771469
2022-12-11T11:30:01.657Z,75.56571108670217
2022-12-11T11:45:02.277Z,75.76753666895472
2022-12-11T12:00:01.932Z,75.67248921544076
2022-12-11T12:15:01.621Z,75.5898813932246
2022-12-11T12:30:02.324Z,75.65160302176412
2022-12-11T12:45:01.962Z,75.59002838895171
2022-12-11T13:00:01.662Z,75.4520937775432
2022-12-11T13:15:02.296Z,75.63014965663052
2022-12-11T13:30:01.995Z,75.69585562627302
2022-12-11T13:45:01.650Z,75.25176131516675
2022-12-11T14:00:02.313Z,75.65973180829577
2022-12-11T14:15:01.940Z,75.66041807115543
2022-12-11T14:30:01.612Z,75.6557821755305
2022-12-11T14:45:02.281Z,75.34411243187058
2022-12-11T15:00:01.975Z,75.78905947863201
2022-12-11T15:15:01.626Z,75.61486939473633
2022-12-11T15:30:02.322Z,75.80433082239135
2022-12-11T15:45:01.942Z,75.81286686458391
2022-12-11T16:00:01.722Z,75.7055814089538
2022-12-11T16:15:02.466Z,75.79803577246498
2022-12-11T16:30:02.138Z,75.63503170857285
2022-12-11T16:45:01.764Z,75.71303192698245
2022-12-11T17:00:02.411Z,75.60430939793692
2022-12-11T17:15:02.017Z,75.91007491795094
2022-12-11T17:30:01.739Z,75.9437935771074
2022-12-11T17:45:02.374Z,75.54280321650415
2022-12-11T18:00:02.049Z,75.67052170877328
2022-12-11T18:15:01.718Z,75.7833897988352
2022-12-11T18:30:02.441Z,75.81297018932075
2022-12-11T18:45:02.081Z,75.93437142829596
2022-12-11T19:00:01.771Z,75.93899572128203
2022-12-11T19:15:02.428Z,75.92767054920691
2022-12-11T19:30:02.052Z,75.91195130058898
2022-12-11T19:45:01.694Z,75.88883986341267
2022-12-11T20:00:02.340Z,75.85321422733928
2022-12-11T20:15:01.962Z,75.95933722625661
2022-12-11T20:30:01.691Z,75.94824336194671
2022-12-11T20:45:02.380Z,75.96488414460721
2022-12-11T21:00:02.010Z,75.9646531854858
2022-12-11T21:15:01.619Z,75.94801250158582
2022-12-11T21:30:02.303Z,75.95263580571302
2022-12-11T22:00:01.593Z,75.9919252191813
2022-12-11T22:15:02.199Z,76.02221597740697
2022-12-11T22:30:01.924Z,76.14492834171114
2022-12-11T22:45:01.585Z,76.0386233387271
2022-12-11T23:00:02.367Z,76.04647410263368
2022-12-11T23:15:02.013Z,76.04463929837392
2022-12-11T23:30:01.733Z,76.04902664486761
2022-12-11T23:45:02.421Z,76.00582065871944
